Portada
METAR-TAF:

METAR-TAF

Aeroports :

La Gomera, Espanya

latitud: 28-01-47N, longitud: 017-12-53W, altitud: 218 m

Observació

L'informe es va fer fa 26 minuts, a les 05:30 UTC
Vent 1 kt amb direcció variable
Temperatura 19°C
Humitat 73%
Pressió 1017 hPa
Visibilitat 10 km o més
Cel cobert a una alçada de 2000 ft

METAR: GCGM 270530Z AUTO VRB01KT 9999 OVC020 19/14 Q1017 RMK R09/VRB01KT ARP/VRB01KT

Hora: 06:56 (05:56 UTC)

Pronòstic

L'informe es va fer fa 3 hores i 56 minuts, a les 02:00 UTC
Pronòstic vàlid del 27 a les 03 UTC al 28 a les 03 UTC
Vent 9 kt del Sud-Oest
Visibilitat 10 km o més
Escasses núvols a una alçada de 2500 ft

TAF: GCGM 270200Z 2703/2803 22009KT 9999 FEW025 TX25/2714Z TN18/2706Z

Observacions i pronòstics meteorològics de més de 4000 aeroports (METAR i TAF).

Les estacions disponibles són els punts grocs i vermells al mapa.

Posi el ratolí al punt desitjat per veure el nom de l'estació.

Feu clic per veure les observacions i els pronòstics meteorològics.

Per canviar el mapa: feu clic els botons verds amb una creu de color negre per apropar; al botó verd amb un guió per allunyar la imatge; o en les fletxes verdes per a mapes adjacents.


METAR-TAF: